sensor_id;sensor_type;location;lat;lon;timestamp;P1;durP1;ratioP1;P2;durP2;ratioP2
62832;SDS011;48891;49.220;6.920;2023-02-28T08:54:19;26.13;;;16.15;;
62832;SDS011;48891;49.220;6.920;2023-02-28T08:56:45;27.20;;;15.10;;
62832;SDS011;48891;49.220;6.920;2023-02-28T08:59:11;24.75;;;15.50;;
62832;SDS011;48891;49.220;6.920;2023-02-28T09:01:36;26.33;;;16.15;;
62832;SDS011;48891;49.220;6.920;2023-02-28T09:04:01;24.37;;;15.17;;
62832;SDS011;48891;49.220;6.920;2023-02-28T09:06:27;27.63;;;15.43;;
62832;SDS011;48891;49.220;6.920;2023-02-28T09:08:52;23.08;;;14.93;;
62832;SDS011;48891;49.220;6.920;2023-02-28T09:11:17;26.88;;;16.00;;
62832;SDS011;48891;49.220;6.920;2023-02-28T09:13:44;23.17;;;14.00;;
62832;SDS011;48891;49.220;6.920;2023-02-28T09:16:12;24.13;;;14.45;;
62832;SDS011;48891;49.220;6.920;2023-02-28T09:18:39;23.40;;;14.30;;
62832;SDS011;48891;49.220;6.920;2023-02-28T09:21:15;22.80;;;13.75;;
62832;SDS011;48891;49.220;6.920;2023-02-28T09:23:42;24.67;;;14.70;;
62832;SDS011;48891;49.220;6.920;2023-02-28T09:26:16;26.10;;;14.27;;
62832;SDS011;48891;49.220;6.920;2023-02-28T09:28:44;22.95;;;14.15;;
62832;SDS011;48891;49.220;6.920;2023-02-28T09:31:14;22.58;;;14.77;;
62832;SDS011;48891;49.220;6.920;2023-02-28T09:33:43;21.95;;;13.90;;
62832;SDS011;48891;49.220;6.920;2023-02-28T09:36:08;24.48;;;14.60;;
62832;SDS011;48891;49.220;6.920;2023-02-28T09:38:33;21.38;;;13.73;;
62832;SDS011;48891;49.220;6.920;2023-02-28T09:41:00;22.92;;;14.43;;
62832;SDS011;48891;49.220;6.920;2023-02-28T09:43:29;24.38;;;15.27;;
62832;SDS011;48891;49.220;6.920;2023-02-28T09:46:14;24.88;;;14.43;;
62832;SDS011;48891;49.220;6.920;2023-02-28T09:48:50;23.55;;;14.13;;
62832;SDS011;48891;49.220;6.920;2023-02-28T09:53:56;22.73;;;13.70;;
62832;SDS011;48891;49.220;6.920;2023-02-28T09:56:26;23.10;;;13.70;;
62832;SDS011;48891;49.220;6.920;2023-02-28T09:58:59;20.92;;;13.32;;
62832;SDS011;48891;49.220;6.920;2023-02-28T10:06:46;22.13;;;13.77;;
62832;SDS011;48891;49.220;6.920;2023-02-28T10:09:25;22.15;;;13.07;;
62832;SDS011;48891;49.220;6.920;2023-02-28T10:11:56;23.23;;;14.00;;
62832;SDS011;48891;49.220;6.920;2023-02-28T10:14:26;22.88;;;14.13;;
62832;SDS011;48891;49.220;6.920;2023-02-28T10:16:58;23.45;;;13.35;;
62832;SDS011;48891;49.220;6.920;2023-02-28T10:19:29;22.00;;;13.50;;
62832;SDS011;48891;49.220;6.920;2023-02-28T10:24:50;22.52;;;14.25;;
62832;SDS011;48891;49.220;6.920;2023-02-28T10:27:18;24.45;;;12.98;;
62832;SDS011;48891;49.220;6.920;2023-02-28T10:29:52;21.30;;;13.18;;
62832;SDS011;48891;49.220;6.920;2023-02-28T10:32:23;21.48;;;13.55;;
62832;SDS011;48891;49.220;6.920;2023-02-28T10:34:51;20.35;;;13.10;;
62832;SDS011;48891;49.220;6.920;2023-02-28T10:37:20;21.38;;;13.18;;
62832;SDS011;48891;49.220;6.920;2023-02-28T10:39:46;19.23;;;12.27;;
62832;SDS011;48891;49.220;6.920;2023-02-28T10:42:28;20.33;;;13.10;;
62832;SDS011;48891;49.220;6.920;2023-02-28T10:47:31;19.02;;;12.15;;
62832;SDS011;48891;49.220;6.920;2023-02-28T10:49:59;19.08;;;12.25;;
62832;SDS011;48891;49.220;6.920;2023-02-28T10:52:33;18.10;;;12.13;;
62832;SDS011;48891;49.220;6.920;2023-02-28T10:55:21;19.83;;;12.57;;
62832;SDS011;48891;49.220;6.920;2023-02-28T10:57:49;20.83;;;13.43;;
62832;SDS011;48891;49.220;6.920;2023-02-28T11:00:19;19.42;;;12.57;;
62832;SDS011;48891;49.220;6.920;2023-02-28T11:02:46;20.25;;;12.80;;
62832;SDS011;48891;49.220;6.920;2023-02-28T11:07:56;18.55;;;12.60;;
62832;SDS011;48891;49.220;6.920;2023-02-28T11:10:30;18.17;;;12.35;;
62832;SDS011;48891;49.220;6.920;2023-02-28T11:12:57;18.63;;;12.02;;
62832;SDS011;48891;49.220;6.920;2023-02-28T11:15:26;19.38;;;12.60;;
62832;SDS011;48891;49.220;6.920;2023-02-28T11:18:00;20.73;;;13.00;;
62832;SDS011;48891;49.220;6.920;2023-02-28T11:20:32;19.13;;;12.80;;
62832;SDS011;48891;49.220;6.920;2023-02-28T11:22:59;19.63;;;12.50;;
62832;SDS011;48891;49.220;6.920;2023-02-28T11:28:00;17.35;;;12.57;;
62832;SDS011;48891;49.220;6.920;2023-02-28T11:30:32;17.30;;;12.10;;
62832;SDS011;48891;49.220;6.920;2023-02-28T11:36:23;18.90;;;12.15;;
62832;SDS011;48891;49.220;6.920;2023-02-28T11:38:49;17.95;;;11.82;;
62832;SDS011;48891;49.220;6.920;2023-02-28T11:41:20;19.45;;;12.63;;
62832;SDS011;48891;49.220;6.920;2023-02-28T11:46:54;19.98;;;12.55;;
62832;SDS011;48891;49.220;6.920;2023-02-28T11:49:32;18.10;;;12.63;;
62832;SDS011;48891;49.220;6.920;2023-02-28T11:54:55;16.80;;;11.65;;
62832;SDS011;48891;49.220;6.920;2023-02-28T12:03:03;16.73;;;11.65;;
62832;SDS011;48891;49.220;6.920;2023-02-28T12:11:45;17.30;;;12.05;;
62832;SDS011;48891;49.220;6.920;2023-02-28T12:14:21;15.68;;;11.60;;
62832;SDS011;48891;49.220;6.920;2023-02-28T12:24:59;17.65;;;12.68;;
62832;SDS011;48891;49.220;6.920;2023-02-28T12:27:46;16.77;;;12.20;;
62832;SDS011;48891;49.220;6.920;2023-02-28T12:30:14;16.77;;;12.13;;
62832;SDS011;48891;49.220;6.920;2023-02-28T12:32:41;17.15;;;11.88;;
62832;SDS011;48891;49.220;6.920;2023-02-28T12:35:12;15.75;;;12.05;;
62832;SDS011;48891;49.220;6.920;2023-02-28T12:40:13;19.25;;;12.90;;
62832;SDS011;48891;49.220;6.920;2023-02-28T12:42:43;17.35;;;12.25;;
62832;SDS011;48891;49.220;6.920;2023-02-28T12:47:46;16.23;;;11.77;;
62832;SDS011;48891;49.220;6.920;2023-02-28T12:50:16;16.65;;;11.73;;
62832;SDS011;48891;49.220;6.920;2023-02-28T12:52:56;19.08;;;12.95;;
62832;SDS011;48891;49.220;6.920;2023-02-28T12:55:48;17.10;;;11.70;;
62832;SDS011;48891;49.220;6.920;2023-02-28T12:58:20;18.52;;;12.20;;
62832;SDS011;48891;49.220;6.920;2023-02-28T13:06:22;16.05;;;11.90;;
62832;SDS011;48891;49.220;6.920;2023-02-28T13:09:01;14.75;;;11.18;;
62832;SDS011;48891;49.220;6.920;2023-02-28T13:14:25;16.27;;;11.32;;
62832;SDS011;48891;49.220;6.920;2023-02-28T13:19:33;17.30;;;11.25;;
62832;SDS011;48891;49.220;6.920;2023-02-28T13:22:00;16.02;;;12.25;;
62832;SDS011;48891;49.220;6.920;2023-02-28T13:29:36;17.00;;;11.70;;
62832;SDS011;48891;49.220;6.920;2023-02-28T13:34:28;16.97;;;12.70;;
62832;SDS011;48891;49.220;6.920;2023-02-28T13:39:48;14.98;;;11.27;;
62832;SDS011;48891;49.220;6.920;2023-02-28T13:47:28;17.20;;;12.05;;
62832;SDS011;48891;49.220;6.920;2023-02-28T13:49:55;13.80;;;11.25;;
62832;SDS011;48891;49.220;6.920;2023-02-28T14:06:17;15.32;;;10.75;;
62832;SDS011;48891;49.220;6.920;2023-02-28T14:08:54;15.48;;;11.05;;
62832;SDS011;48891;49.220;6.920;2023-02-28T14:11:26;14.80;;;10.70;;
62832;SDS011;48891;49.220;6.920;2023-02-28T14:13:54;16.40;;;11.68;;
62832;SDS011;48891;49.220;6.920;2023-02-28T14:16:20;17.20;;;12.00;;
62832;SDS011;48891;49.220;6.920;2023-02-28T14:18:58;15.30;;;10.95;;
62832;SDS011;48891;49.220;6.920;2023-02-28T14:27:23;16.55;;;12.00;;
62832;SDS011;48891;49.220;6.920;2023-02-28T14:35:50;14.20;;;11.00;;
62832;SDS011;48891;49.220;6.920;2023-02-28T14:38:27;14.55;;;11.15;;
62832;SDS011;48891;49.220;6.920;2023-02-28T14:40:56;13.85;;;10.80;;
62832;SDS011;48891;49.220;6.920;2023-02-28T14:43:24;14.57;;;11.02;;
62832;SDS011;48891;49.220;6.920;2023-02-28T14:45:52;14.43;;;10.70;;
62832;SDS011;48891;49.220;6.920;2023-02-28T14:48:20;15.15;;;10.95;;
62832;SDS011;48891;49.220;6.920;2023-02-28T14:50:57;13.80;;;10.68;;
62832;SDS011;48891;49.220;6.920;2023-02-28T14:53:28;15.02;;;10.63;;
62832;SDS011;48891;49.220;6.920;2023-02-28T14:55:55;14.38;;;10.85;;
62832;SDS011;48891;49.220;6.920;2023-02-28T15:00:51;13.93;;;10.50;;
62832;SDS011;48891;49.220;6.920;2023-02-28T15:03:19;14.95;;;10.40;;
62832;SDS011;48891;49.220;6.920;2023-02-28T15:06:00;14.25;;;10.07;;
62832;SDS011;48891;49.220;6.920;2023-02-28T15:08:46;13.77;;;10.27;;
62832;SDS011;48891;49.220;6.920;2023-02-28T15:11:13;13.88;;;10.48;;
62832;SDS011;48891;49.220;6.920;2023-02-28T15:13:44;13.45;;;10.70;;
62832;SDS011;48891;49.220;6.920;2023-02-28T15:16:26;15.57;;;10.68;;
62832;SDS011;48891;49.220;6.920;2023-02-28T15:21:25;16.35;;;10.45;;
62832;SDS011;48891;49.220;6.920;2023-02-28T15:23:54;14.90;;;10.88;;
62832;SDS011;48891;49.220;6.920;2023-02-28T15:26:25;13.30;;;10.13;;
62832;SDS011;48891;49.220;6.920;2023-02-28T15:28:57;13.38;;;10.25;;
62832;SDS011;48891;49.220;6.920;2023-02-28T15:31:27;13.13;;;10.27;;
62832;SDS011;48891;49.220;6.920;2023-02-28T15:33:55;14.43;;;10.85;;
62832;SDS011;48891;49.220;6.920;2023-02-28T15:36:24;14.80;;;10.70;;
62832;SDS011;48891;49.220;6.920;2023-02-28T15:38:51;13.00;;;9.85;;
62832;SDS011;48891;49.220;6.920;2023-02-28T15:41:27;15.70;;;11.13;;
62832;SDS011;48891;49.220;6.920;2023-02-28T15:44:13;14.05;;;10.30;;
62832;SDS011;48891;49.220;6.920;2023-02-28T15:46:57;13.65;;;10.02;;
62832;SDS011;48891;49.220;6.920;2023-02-28T15:49:26;12.38;;;9.63;;
62832;SDS011;48891;49.220;6.920;2023-02-28T15:51:53;13.13;;;9.90;;
62832;SDS011;48891;49.220;6.920;2023-02-28T15:54:23;14.65;;;10.25;;
62832;SDS011;48891;49.220;6.920;2023-02-28T15:56:53;13.73;;;10.05;;
62832;SDS011;48891;49.220;6.920;2023-02-28T15:59:22;13.98;;;10.15;;
62832;SDS011;48891;49.220;6.920;2023-02-28T16:04:33;17.67;;;10.70;;
62832;SDS011;48891;49.220;6.920;2023-02-28T16:09:24;14.47;;;9.37;;
62832;SDS011;48891;49.220;6.920;2023-02-28T16:11:50;13.85;;;9.85;;
62832;SDS011;48891;49.220;6.920;2023-02-28T16:14:22;15.73;;;10.40;;
62832;SDS011;48891;49.220;6.920;2023-02-28T16:16:50;17.23;;;10.02;;
62832;SDS011;48891;49.220;6.920;2023-02-28T16:19:18;16.17;;;10.40;;
62832;SDS011;48891;49.220;6.920;2023-02-28T16:21:44;14.90;;;10.45;;
62832;SDS011;48891;49.220;6.920;2023-02-28T16:24:10;15.77;;;10.55;;
62832;SDS011;48891;49.220;6.920;2023-02-28T16:26:36;16.02;;;10.40;;
62832;SDS011;48891;49.220;6.920;2023-02-28T16:29:03;17.08;;;10.52;;
62832;SDS011;48891;49.220;6.920;2023-02-28T16:31:29;16.02;;;10.68;;
62832;SDS011;48891;49.220;6.920;2023-02-28T16:33:55;18.33;;;11.27;;
62832;SDS011;48891;49.220;6.920;2023-02-28T16:36:21;19.23;;;11.23;;
62832;SDS011;48891;49.220;6.920;2023-02-28T16:38:48;15.30;;;10.82;;
62832;SDS011;48891;49.220;6.920;2023-02-28T16:41:14;21.10;;;11.60;;
62832;SDS011;48891;49.220;6.920;2023-02-28T16:43:43;18.02;;;10.82;;
62832;SDS011;48891;49.220;6.920;2023-02-28T16:46:10;17.80;;;10.45;;
62832;SDS011;48891;49.220;6.920;2023-02-28T16:48:36;18.85;;;11.32;;
62832;SDS011;48891;49.220;6.920;2023-02-28T16:51:02;19.85;;;10.77;;
62832;SDS011;48891;49.220;6.920;2023-02-28T16:53:27;19.95;;;11.15;;
62832;SDS011;48891;49.220;6.920;2023-02-28T16:55:52;15.18;;;11.18;;
62832;SDS011;48891;49.220;6.920;2023-02-28T16:58:17;17.73;;;11.07;;
62832;SDS011;48891;49.220;6.920;2023-02-28T17:00:43;18.25;;;10.38;;
62832;SDS011;48891;49.220;6.920;2023-02-28T17:03:26;19.25;;;11.88;;
62832;SDS011;48891;49.220;6.920;2023-02-28T17:05:52;18.90;;;11.25;;
62832;SDS011;48891;49.220;6.920;2023-02-28T17:08:18;16.20;;;10.55;;
62832;SDS011;48891;49.220;6.920;2023-02-28T17:10:45;16.95;;;10.88;;
62832;SDS011;48891;49.220;6.920;2023-02-28T17:13:10;19.42;;;10.82;;
62832;SDS011;48891;49.220;6.920;2023-02-28T17:15:36;16.35;;;11.52;;
62832;SDS011;48891;49.220;6.920;2023-02-28T17:18:02;20.83;;;11.05;;
62832;SDS011;48891;49.220;6.920;2023-02-28T17:20:28;17.85;;;11.18;;
62832;SDS011;48891;49.220;6.920;2023-02-28T17:22:54;16.10;;;11.32;;
62832;SDS011;48891;49.220;6.920;2023-02-28T17:25:20;19.73;;;11.50;;
62832;SDS011;48891;49.220;6.920;2023-02-28T17:27:46;19.17;;;10.70;;
62832;SDS011;48891;49.220;6.920;2023-02-28T17:30:15;16.23;;;11.05;;
62832;SDS011;48891;49.220;6.920;2023-02-28T17:32:43;19.35;;;11.45;;
62832;SDS011;48891;49.220;6.920;2023-02-28T17:35:09;17.27;;;11.25;;
62832;SDS011;48891;49.220;6.920;2023-02-28T17:37:34;16.55;;;11.25;;
62832;SDS011;48891;49.220;6.920;2023-02-28T17:39:59;15.32;;;11.10;;
62832;SDS011;48891;49.220;6.920;2023-02-28T17:42:25;16.45;;;11.30;;
62832;SDS011;48891;49.220;6.920;2023-02-28T17:44:50;18.95;;;11.38;;
62832;SDS011;48891;49.220;6.920;2023-02-28T17:47:15;16.52;;;11.90;;
62832;SDS011;48891;49.220;6.920;2023-02-28T17:49:41;15.55;;;11.18;;
62832;SDS011;48891;49.220;6.920;2023-02-28T17:52:06;18.92;;;12.43;;
62832;SDS011;48891;49.220;6.920;2023-02-28T17:54:32;14.10;;;10.88;;
62832;SDS011;48891;49.220;6.920;2023-02-28T17:56:57;16.75;;;11.43;;
62832;SDS011;48891;49.220;6.920;2023-02-28T17:59:22;16.73;;;11.55;;
62832;SDS011;48891;49.220;6.920;2023-02-28T18:01:47;17.17;;;11.18;;
62832;SDS011;48891;49.220;6.920;2023-02-28T18:04:12;17.98;;;11.20;;
62832;SDS011;48891;49.220;6.920;2023-02-28T18:06:39;16.55;;;11.35;;
62832;SDS011;48891;49.220;6.920;2023-02-28T18:09:06;16.40;;;11.75;;
62832;SDS011;48891;49.220;6.920;2023-02-28T18:11:33;16.75;;;11.68;;
62832;SDS011;48891;49.220;6.920;2023-02-28T18:13:58;15.73;;;11.52;;
62832;SDS011;48891;49.220;6.920;2023-02-28T18:16:23;15.05;;;11.32;;
62832;SDS011;48891;49.220;6.920;2023-02-28T18:18:49;15.35;;;11.40;;
62832;SDS011;48891;49.220;6.920;2023-02-28T18:21:15;16.40;;;11.77;;
62832;SDS011;48891;49.220;6.920;2023-02-28T18:23:41;19.17;;;11.68;;
62832;SDS011;48891;49.220;6.920;2023-02-28T18:26:07;17.27;;;11.40;;
62832;SDS011;48891;49.220;6.920;2023-02-28T18:28:33;18.10;;;12.65;;
62832;SDS011;48891;49.220;6.920;2023-02-28T18:30:59;16.35;;;11.85;;
62832;SDS011;48891;49.220;6.920;2023-02-28T18:33:30;15.88;;;12.60;;
62832;SDS011;48891;49.220;6.920;2023-02-28T18:35:56;17.15;;;12.00;;
62832;SDS011;48891;49.220;6.920;2023-02-28T18:38:21;19.60;;;12.65;;
62832;SDS011;48891;49.220;6.920;2023-02-28T18:40:53;19.58;;;12.73;;
62832;SDS011;48891;49.220;6.920;2023-02-28T18:43:21;16.88;;;12.15;;
62832;SDS011;48891;49.220;6.920;2023-02-28T18:45:47;18.02;;;12.43;;
62832;SDS011;48891;49.220;6.920;2023-02-28T18:48:12;18.10;;;12.68;;
62832;SDS011;48891;49.220;6.920;2023-02-28T18:50:37;18.30;;;13.38;;
62832;SDS011;48891;49.220;6.920;2023-02-28T18:53:03;18.92;;;12.90;;
62832;SDS011;48891;49.220;6.920;2023-02-28T18:55:29;15.55;;;12.70;;
62832;SDS011;48891;49.220;6.920;2023-02-28T18:57:55;17.60;;;12.52;;
62832;SDS011;48891;49.220;6.920;2023-02-28T19:00:21;18.27;;;13.23;;
62832;SDS011;48891;49.220;6.920;2023-02-28T19:02:47;18.83;;;13.27;;
62832;SDS011;48891;49.220;6.920;2023-02-28T19:05:13;17.40;;;13.20;;
62832;SDS011;48891;49.220;6.920;2023-02-28T19:07:38;18.90;;;13.80;;
62832;SDS011;48891;49.220;6.920;2023-02-28T19:10:04;18.52;;;14.73;;
62832;SDS011;48891;49.220;6.920;2023-02-28T19:12:32;17.75;;;12.85;;
62832;SDS011;48891;49.220;6.920;2023-02-28T19:15:01;20.80;;;13.50;;
62832;SDS011;48891;49.220;6.920;2023-02-28T19:17:27;18.90;;;13.80;;
62832;SDS011;48891;49.220;6.920;2023-02-28T19:19:52;19.00;;;15.10;;
62832;SDS011;48891;49.220;6.920;2023-02-28T19:22:17;18.38;;;13.38;;
62832;SDS011;48891;49.220;6.920;2023-02-28T19:24:43;17.25;;;13.43;;
62832;SDS011;48891;49.220;6.920;2023-02-28T19:27:08;19.77;;;14.43;;
62832;SDS011;48891;49.220;6.920;2023-02-28T19:29:33;18.17;;;14.13;;
62832;SDS011;48891;49.220;6.920;2023-02-28T19:31:59;18.83;;;14.23;;
62832;SDS011;48891;49.220;6.920;2023-02-28T19:34:24;17.33;;;13.90;;
62832;SDS011;48891;49.220;6.920;2023-02-28T19:36:49;20.75;;;15.25;;
62832;SDS011;48891;49.220;6.920;2023-02-28T19:39:14;21.58;;;14.93;;
62832;SDS011;48891;49.220;6.920;2023-02-28T19:41:40;17.85;;;14.70;;
62832;SDS011;48891;49.220;6.920;2023-02-28T19:44:05;18.70;;;14.93;;
62832;SDS011;48891;49.220;6.920;2023-02-28T19:46:30;20.17;;;15.48;;
62832;SDS011;48891;49.220;6.920;2023-02-28T19:48:56;19.55;;;14.55;;
62832;SDS011;48891;49.220;6.920;2023-02-28T19:51:21;18.25;;;14.93;;
62832;SDS011;48891;49.220;6.920;2023-02-28T19:53:46;20.15;;;14.90;;
62832;SDS011;48891;49.220;6.920;2023-02-28T19:56:12;20.73;;;15.60;;
62832;SDS011;48891;49.220;6.920;2023-02-28T19:58:37;19.20;;;15.55;;
62832;SDS011;48891;49.220;6.920;2023-02-28T20:01:10;18.02;;;15.50;;
62832;SDS011;48891;49.220;6.920;2023-02-28T20:03:37;19.92;;;15.73;;
62832;SDS011;48891;49.220;6.920;2023-02-28T20:06:03;19.77;;;16.35;;
62832;SDS011;48891;49.220;6.920;2023-02-28T20:08:31;23.05;;;16.77;;
62832;SDS011;48891;49.220;6.920;2023-02-28T20:11:04;20.98;;;16.13;;
62832;SDS011;48891;49.220;6.920;2023-02-28T20:13:30;21.42;;;15.82;;
62832;SDS011;48891;49.220;6.920;2023-02-28T20:16:03;21.83;;;16.65;;
62832;SDS011;48891;49.220;6.920;2023-02-28T20:18:30;21.77;;;16.80;;
62832;SDS011;48891;49.220;6.920;2023-02-28T20:20:56;22.42;;;17.70;;
62832;SDS011;48891;49.220;6.920;2023-02-28T20:23:22;22.90;;;18.08;;
62832;SDS011;48891;49.220;6.920;2023-02-28T20:25:48;23.17;;;18.20;;
62832;SDS011;48891;49.220;6.920;2023-02-28T20:28:14;22.92;;;17.83;;
62832;SDS011;48891;49.220;6.920;2023-02-28T20:30:40;23.55;;;18.13;;
62832;SDS011;48891;49.220;6.920;2023-02-28T20:33:05;23.13;;;17.48;;
62832;SDS011;48891;49.220;6.920;2023-02-28T20:35:30;23.15;;;18.75;;
62832;SDS011;48891;49.220;6.920;2023-02-28T20:37:55;25.67;;;18.77;;
62832;SDS011;48891;49.220;6.920;2023-02-28T20:40:20;25.35;;;19.98;;
62832;SDS011;48891;49.220;6.920;2023-02-28T20:42:46;27.88;;;20.75;;
62832;SDS011;48891;49.220;6.920;2023-02-28T20:45:11;24.67;;;19.60;;
62832;SDS011;48891;49.220;6.920;2023-02-28T20:47:36;27.73;;;21.13;;
62832;SDS011;48891;49.220;6.920;2023-02-28T20:50:02;28.52;;;21.40;;
62832;SDS011;48891;49.220;6.920;2023-02-28T20:52:27;28.60;;;21.77;;
62832;SDS011;48891;49.220;6.920;2023-02-28T20:54:52;29.73;;;21.48;;
62832;SDS011;48891;49.220;6.920;2023-02-28T20:57:18;29.70;;;22.27;;
62832;SDS011;48891;49.220;6.920;2023-02-28T20:59:43;28.67;;;21.92;;
62832;SDS011;48891;49.220;6.920;2023-02-28T21:02:08;29.05;;;22.50;;
62832;SDS011;48891;49.220;6.920;2023-02-28T21:04:38;28.35;;;22.17;;
62832;SDS011;48891;49.220;6.920;2023-02-28T21:07:03;30.50;;;23.23;;
62832;SDS011;48891;49.220;6.920;2023-02-28T21:09:29;31.65;;;23.33;;
62832;SDS011;48891;49.220;6.920;2023-02-28T21:11:54;32.25;;;24.42;;
62832;SDS011;48891;49.220;6.920;2023-02-28T21:14:19;31.63;;;24.10;;
62832;SDS011;48891;49.220;6.920;2023-02-28T21:16:44;30.77;;;24.85;;
62832;SDS011;48891;49.220;6.920;2023-02-28T21:19:10;29.23;;;23.33;;
62832;SDS011;48891;49.220;6.920;2023-02-28T21:21:36;31.92;;;23.48;;
62832;SDS011;48891;49.220;6.920;2023-02-28T21:24:04;33.78;;;26.38;;
62832;SDS011;48891;49.220;6.920;2023-02-28T21:26:30;31.77;;;24.77;;
62832;SDS011;48891;49.220;6.920;2023-02-28T21:28:56;30.23;;;23.65;;
62832;SDS011;48891;49.220;6.920;2023-02-28T21:31:24;35.47;;;26.27;;
62832;SDS011;48891;49.220;6.920;2023-02-28T21:33:52;34.13;;;25.70;;
62832;SDS011;48891;49.220;6.920;2023-02-28T21:36:19;34.60;;;25.48;;
62832;SDS011;48891;49.220;6.920;2023-02-28T21:38:47;34.63;;;25.43;;
62832;SDS011;48891;49.220;6.920;2023-02-28T21:41:18;32.60;;;26.13;;
62832;SDS011;48891;49.220;6.920;2023-02-28T21:43:44;38.00;;;27.60;;
62832;SDS011;48891;49.220;6.920;2023-02-28T21:46:14;36.95;;;27.80;;
62832;SDS011;48891;49.220;6.920;2023-02-28T21:48:42;34.13;;;26.67;;
62832;SDS011;48891;49.220;6.920;2023-02-28T21:51:09;37.35;;;28.13;;
62832;SDS011;48891;49.220;6.920;2023-02-28T21:53:37;37.30;;;27.80;;
62832;SDS011;48891;49.220;6.920;2023-02-28T21:56:04;36.80;;;28.13;;
62832;SDS011;48891;49.220;6.920;2023-02-28T21:58:32;43.40;;;28.90;;
62832;SDS011;48891;49.220;6.920;2023-02-28T22:01:08;39.38;;;28.33;;
62832;SDS011;48891;49.220;6.920;2023-02-28T22:03:36;39.22;;;28.65;;
62832;SDS011;48891;49.220;6.920;2023-02-28T22:06:08;39.60;;;28.70;;
62832;SDS011;48891;49.220;6.920;2023-02-28T22:08:42;42.47;;;30.77;;
62832;SDS011;48891;49.220;6.920;2023-02-28T22:11:09;41.00;;;30.10;;
62832;SDS011;48891;49.220;6.920;2023-02-28T22:13:35;44.67;;;30.15;;
62832;SDS011;48891;49.220;6.920;2023-02-28T22:16:06;42.35;;;29.67;;
62832;SDS011;48891;49.220;6.920;2023-02-28T22:18:34;39.38;;;29.17;;
62832;SDS011;48891;49.220;6.920;2023-02-28T22:20:59;41.45;;;30.73;;
62832;SDS011;48891;49.220;6.920;2023-02-28T22:23:25;41.95;;;30.73;;
62832;SDS011;48891;49.220;6.920;2023-02-28T22:25:51;40.60;;;30.55;;
62832;SDS011;48891;49.220;6.920;2023-02-28T22:28:16;42.22;;;30.48;;
62832;SDS011;48891;49.220;6.920;2023-02-28T22:30:42;45.17;;;31.40;;
62832;SDS011;48891;49.220;6.920;2023-02-28T22:33:07;42.28;;;31.17;;
62832;SDS011;48891;49.220;6.920;2023-02-28T22:35:32;41.00;;;30.38;;
62832;SDS011;48891;49.220;6.920;2023-02-28T22:37:57;43.28;;;31.48;;
62832;SDS011;48891;49.220;6.920;2023-02-28T22:40:23;42.05;;;31.10;;
62832;SDS011;48891;49.220;6.920;2023-02-28T22:42:48;42.50;;;31.63;;
62832;SDS011;48891;49.220;6.920;2023-02-28T22:45:13;42.83;;;30.63;;
62832;SDS011;48891;49.220;6.920;2023-02-28T22:47:39;43.53;;;31.75;;
62832;SDS011;48891;49.220;6.920;2023-02-28T22:50:04;46.13;;;32.53;;
62832;SDS011;48891;49.220;6.920;2023-02-28T22:52:29;43.78;;;31.35;;
62832;SDS011;48891;49.220;6.920;2023-02-28T22:54:55;41.10;;;31.05;;
62832;SDS011;48891;49.220;6.920;2023-02-28T22:57:20;46.92;;;32.78;;
62832;SDS011;48891;49.220;6.920;2023-02-28T22:59:45;42.70;;;32.15;;
62832;SDS011;48891;49.220;6.920;2023-02-28T23:02:10;45.03;;;33.05;;
62832;SDS011;48891;49.220;6.920;2023-02-28T23:04:36;44.17;;;33.00;;
62832;SDS011;48891;49.220;6.920;2023-02-28T23:07:01;45.38;;;32.95;;
62832;SDS011;48891;49.220;6.920;2023-02-28T23:09:26;47.83;;;34.25;;
62832;SDS011;48891;49.220;6.920;2023-02-28T23:11:52;45.38;;;33.42;;
62832;SDS011;48891;49.220;6.920;2023-02-28T23:14:17;47.00;;;33.80;;
62832;SDS011;48891;49.220;6.920;2023-02-28T23:16:44;45.42;;;32.63;;
62832;SDS011;48891;49.220;6.920;2023-02-28T23:19:22;45.00;;;33.83;;
62832;SDS011;48891;49.220;6.920;2023-02-28T23:21:51;46.30;;;33.42;;
62832;SDS011;48891;49.220;6.920;2023-02-28T23:24:17;46.83;;;33.15;;
62832;SDS011;48891;49.220;6.920;2023-02-28T23:26:45;45.63;;;33.13;;
62832;SDS011;48891;49.220;6.920;2023-02-28T23:29:13;46.80;;;34.10;;
62832;SDS011;48891;49.220;6.920;2023-02-28T23:31:39;47.55;;;34.38;;
62832;SDS011;48891;49.220;6.920;2023-02-28T23:34:05;47.15;;;34.80;;
62832;SDS011;48891;49.220;6.920;2023-02-28T23:36:31;45.45;;;32.38;;
62832;SDS011;48891;49.220;6.920;2023-02-28T23:38:56;49.42;;;34.30;;
62832;SDS011;48891;49.220;6.920;2023-02-28T23:41:22;48.38;;;34.53;;
62832;SDS011;48891;49.220;6.920;2023-02-28T23:43:49;45.75;;;33.40;;
62832;SDS011;48891;49.220;6.920;2023-02-28T23:46:16;47.73;;;34.57;;
62832;SDS011;48891;49.220;6.920;2023-02-28T23:48:41;49.28;;;34.20;;
62832;SDS011;48891;49.220;6.920;2023-02-28T23:51:18;49.47;;;34.50;;
62832;SDS011;48891;49.220;6.920;2023-02-28T23:53:45;49.75;;;35.17;;
62832;SDS011;48891;49.220;6.920;2023-02-28T23:56:13;45.08;;;33.55;;
62832;SDS011;48891;49.220;6.920;2023-02-28T23:58:41;48.25;;;34.63;;
